createdAt,value
2023-03-12T00:02:01.272Z,6.97
2023-03-12T00:04:28.807Z,6.83
2023-03-12T00:06:55.496Z,6.73
2023-03-12T00:09:23.518Z,7.10
2023-03-12T00:11:50.194Z,7.30
2023-03-12T00:14:17.161Z,6.23
2023-03-12T00:16:43.934Z,6.17
2023-03-12T00:19:13.605Z,7.07
2023-03-12T00:21:40.519Z,6.43
2023-03-12T00:24:08.360Z,6.83
2023-03-12T00:26:35.067Z,6.57
2023-03-12T00:29:02.131Z,7.57
2023-03-12T00:31:32.934Z,7.17
2023-03-12T00:34:01.236Z,7.10
2023-03-12T00:36:31.377Z,8.50
2023-03-12T00:38:59.656Z,8.40
2023-03-12T00:41:27.436Z,7.83
2023-03-12T00:43:54.153Z,7.53
2023-03-12T00:46:20.987Z,7.27
2023-03-12T00:48:48.175Z,7.93
2023-03-12T00:51:15.071Z,8.60
2023-03-12T00:53:45.180Z,9.00
2023-03-12T00:56:11.859Z,8.60
2023-03-12T00:58:38.904Z,9.47
2023-03-12T01:01:06.052Z,10.30
2023-03-12T01:03:33.168Z,10.33
2023-03-12T01:06:00.102Z,10.07
2023-03-12T01:08:26.930Z,9.73
2023-03-12T01:10:53.859Z,11.10
2023-03-12T01:13:21.428Z,11.37
2023-03-12T01:15:48.133Z,10.90
2023-03-12T01:18:14.976Z,11.23
2023-03-12T01:20:41.991Z,10.57
2023-03-12T01:23:09.902Z,11.03
2023-03-12T01:25:37.653Z,12.07
2023-03-12T01:28:04.998Z,11.73
2023-03-12T01:30:32.057Z,12.77
2023-03-12T01:32:58.839Z,11.20
2023-03-12T01:35:26.061Z,11.00
2023-03-12T01:37:53.202Z,11.80
2023-03-12T01:40:25.553Z,11.90
2023-03-12T01:42:54.190Z,11.30
2023-03-12T01:45:58.420Z,12.47
2023-03-12T01:48:27.817Z,11.80
2023-03-12T01:50:54.620Z,11.73
2023-03-12T01:53:22.590Z,12.53
2023-03-12T01:55:50.186Z,11.40
2023-03-12T01:58:17.701Z,11.47
2023-03-12T02:00:45.353Z,11.50
2023-03-12T02:03:13.970Z,14.03
2023-03-12T02:05:51.979Z,12.13
2023-03-12T02:08:19.814Z,10.83
2023-03-12T02:10:47.080Z,10.87
2023-03-12T02:13:14.336Z,10.60
2023-03-12T02:15:41.172Z,11.07
2023-03-12T02:18:12.001Z,14.27
2023-03-12T02:20:56.920Z,11.60
2023-03-12T02:23:51.073Z,9.67
2023-03-12T02:26:19.951Z,12.10
2023-03-12T02:28:48.227Z,11.37
2023-03-12T02:31:20.130Z,11.97
2023-03-12T02:33:47.002Z,11.60
2023-03-12T02:36:13.801Z,12.40
2023-03-12T02:38:42.585Z,11.07
2023-03-12T02:41:20.321Z,11.83
2023-03-12T02:44:10.129Z,11.53
2023-03-12T02:46:51.114Z,11.73
2023-03-12T02:49:19.484Z,11.63
2023-03-12T02:51:47.544Z,12.07
2023-03-12T02:54:17.126Z,11.03
2023-03-12T02:56:44.090Z,10.13
2023-03-12T02:59:13.409Z,10.63
2023-03-12T03:01:40.939Z,9.33
2023-03-12T03:04:10.621Z,10.60
2023-03-12T03:06:40.592Z,10.80
2023-03-12T03:09:07.629Z,10.37
2023-03-12T03:11:34.592Z,10.27
2023-03-12T03:14:03.425Z,9.87
2023-03-12T03:16:34.044Z,9.70
2023-03-12T03:19:00.915Z,10.03
2023-03-12T03:21:28.321Z,9.30
2023-03-12T03:23:55.018Z,10.63
2023-03-12T03:26:24.164Z,9.37
2023-03-12T03:28:51.470Z,10.53
2023-03-12T03:31:18.824Z,9.40
2023-03-12T03:33:46.103Z,10.50
2023-03-12T03:36:15.115Z,10.80
2023-03-12T03:38:42.661Z,9.87
2023-03-12T03:41:09.565Z,10.13
2023-03-12T03:43:36.446Z,9.70
2023-03-12T03:46:05.433Z,10.13
2023-03-12T03:48:32.698Z,9.37
2023-03-12T03:51:04.436Z,9.83
2023-03-12T03:53:31.915Z,10.37
2023-03-12T03:55:58.945Z,9.73
2023-03-12T03:58:25.645Z,10.10
2023-03-12T04:00:54.484Z,10.97
2023-03-12T04:03:21.217Z,10.47
2023-03-12T04:05:54.529Z,11.00
2023-03-12T04:08:21.360Z,10.47
2023-03-12T04:10:48.408Z,9.57
2023-03-12T04:13:15.254Z,10.93
2023-03-12T04:15:49.682Z,8.83
2023-03-12T04:18:16.550Z,9.80
2023-03-12T04:20:43.776Z,9.60
2023-03-12T04:23:11.498Z,9.70
2023-03-12T04:25:39.306Z,8.67
2023-03-12T04:28:06.648Z,9.43
2023-03-12T04:30:33.474Z,8.30
2023-03-12T04:33:00.282Z,8.73
2023-03-12T04:35:27.080Z,7.73
2023-03-12T04:37:53.835Z,8.53
2023-03-12T04:40:20.736Z,7.60
2023-03-12T04:42:48.084Z,8.00
2023-03-12T04:45:15.337Z,8.30
2023-03-12T04:47:42.160Z,7.97
2023-03-12T04:50:09.804Z,7.93
2023-03-12T04:52:36.628Z,7.77
2023-03-12T04:55:03.782Z,8.47
2023-03-12T04:57:30.509Z,7.90
2023-03-12T04:59:57.321Z,8.70
2023-03-12T05:02:24.777Z,8.17
2023-03-12T05:04:51.444Z,8.50
2023-03-12T05:07:18.216Z,8.17
2023-03-12T05:09:46.453Z,7.87
2023-03-12T05:12:13.198Z,7.83
2023-03-12T05:14:40.070Z,7.23
2023-03-12T05:17:07.129Z,7.27
2023-03-12T05:19:33.896Z,7.90
2023-03-12T05:22:00.861Z,7.73
2023-03-12T05:24:28.658Z,7.50
2023-03-12T05:26:55.440Z,8.27
2023-03-12T05:29:22.411Z,9.23
2023-03-12T05:31:50.050Z,7.67
2023-03-12T05:34:16.832Z,7.03
2023-03-12T05:36:44.404Z,7.07
2023-03-12T05:39:11.211Z,7.33
2023-03-12T05:41:38.063Z,6.93
2023-03-12T05:44:05.272Z,7.07
2023-03-12T05:46:32.004Z,7.57
2023-03-12T05:48:58.800Z,7.13
2023-03-12T05:51:25.503Z,7.53
2023-03-12T05:53:52.270Z,7.00
2023-03-12T05:56:19.027Z,7.33
2023-03-12T05:58:48.191Z,7.00
2023-03-12T06:01:18.264Z,7.07
2023-03-12T06:03:45.643Z,6.97
2023-03-12T06:06:13.081Z,7.33
2023-03-12T06:08:40.684Z,7.23
2023-03-12T06:11:07.866Z,6.87
2023-03-12T06:13:34.685Z,7.53
2023-03-12T06:16:06.814Z,6.20
2023-03-12T06:18:35.181Z,6.70
2023-03-12T06:21:19.402Z,6.43
2023-03-12T06:23:47.233Z,7.13
2023-03-12T06:26:14.578Z,6.27
2023-03-12T06:28:41.578Z,6.87
2023-03-12T06:31:09.713Z,5.87
2023-03-12T06:33:36.633Z,7.10
2023-03-12T06:36:06.005Z,6.77
2023-03-12T06:38:33.726Z,6.47
2023-03-12T06:41:01.667Z,6.33
2023-03-12T06:43:30.210Z,6.30
2023-03-12T06:45:58.664Z,7.03
2023-03-12T06:48:26.836Z,6.33
2023-03-12T06:50:53.872Z,7.40
2023-03-12T06:53:21.746Z,7.00
2023-03-12T06:55:50.528Z,6.20
2023-03-12T06:58:17.300Z,6.37
2023-03-12T07:00:44.110Z,6.30
2023-03-12T07:03:10.944Z,6.03
2023-03-12T07:05:37.710Z,5.83
2023-03-12T07:08:04.574Z,6.17
2023-03-12T07:10:31.683Z,5.73
2023-03-12T07:12:58.561Z,5.37
2023-03-12T07:15:25.444Z,6.20
2023-03-12T07:17:52.162Z,5.70
2023-03-12T07:20:19.068Z,5.67
2023-03-12T07:22:45.812Z,6.07
2023-03-12T07:25:12.556Z,6.33
2023-03-12T07:27:39.348Z,6.37
2023-03-12T07:30:06.763Z,6.30
2023-03-12T07:32:33.715Z,6.50
2023-03-12T07:35:00.754Z,6.17
2023-03-12T07:37:27.509Z,5.87
2023-03-12T07:39:54.998Z,6.67
2023-03-12T07:42:22.332Z,6.53
2023-03-12T07:44:49.061Z,7.00
2023-03-12T07:47:23.768Z,6.70
2023-03-12T07:49:51.594Z,7.10
2023-03-12T07:52:20.227Z,6.37
2023-03-12T07:54:47.759Z,5.60
2023-03-12T07:57:14.999Z,6.23
2023-03-12T07:59:41.977Z,5.17
2023-03-12T08:02:10.980Z,5.67
2023-03-12T08:04:37.959Z,5.93
2023-03-12T08:07:07.358Z,6.77
2023-03-12T08:09:36.110Z,6.50
2023-03-12T08:12:03.010Z,6.33
2023-03-12T08:14:31.859Z,6.90
2023-03-12T08:16:59.428Z,6.50
2023-03-12T08:19:27.078Z,6.30
2023-03-12T08:21:55.667Z,5.90
2023-03-12T08:24:22.458Z,5.87
2023-03-12T08:26:49.282Z,5.53
2023-03-12T08:29:17.046Z,4.77
2023-03-12T08:32:01.482Z,5.07
2023-03-12T08:34:30.615Z,5.87
2023-03-12T08:36:57.569Z,5.07
2023-03-12T08:39:24.241Z,5.33
2023-03-12T08:41:55.487Z,5.27
2023-03-12T08:44:23.630Z,5.30
2023-03-12T08:46:51.249Z,5.47
2023-03-12T08:49:18.548Z,5.50
2023-03-12T08:51:45.262Z,5.50
2023-03-12T08:54:12.277Z,5.43
2023-03-12T08:56:46.136Z,4.87
2023-03-12T08:59:13.653Z,5.60
2023-03-12T09:01:43.564Z,6.40
2023-03-12T09:04:10.627Z,6.30
2023-03-12T09:06:38.833Z,6.27
2023-03-12T09:09:09.239Z,6.40
2023-03-12T09:11:39.802Z,5.87
2023-03-12T09:15:00.887Z,6.23
2023-03-12T09:16:54.226Z,6.80
2023-03-12T09:19:21.310Z,6.30
2023-03-12T09:21:50.814Z,5.73
2023-03-12T09:24:17.993Z,6.00
2023-03-12T09:26:44.829Z,6.33
2023-03-12T09:29:11.662Z,7.20
2023-03-12T09:31:38.529Z,7.40
2023-03-12T09:34:06.007Z,6.30
2023-03-12T09:36:33.529Z,7.90
2023-03-12T09:39:00.418Z,7.13
2023-03-12T09:41:31.086Z,7.30
2023-03-12T09:44:05.055Z,6.00
2023-03-12T09:46:39.164Z,5.77
2023-03-12T09:49:17.811Z,5.57
2023-03-12T09:51:51.835Z,5.10
2023-03-12T09:54:59.666Z,5.70
2023-03-12T09:57:27.808Z,5.33
2023-03-12T09:59:55.055Z,6.00
2023-03-12T10:02:40.386Z,5.53
2023-03-12T10:05:13.178Z,5.67
2023-03-12T10:07:58.286Z,4.50
2023-03-12T10:10:45.413Z,4.77
2023-03-12T10:13:33.941Z,4.70
2023-03-12T10:16:39.612Z,5.23
2023-03-12T10:19:25.404Z,5.63
2023-03-12T10:22:10.682Z,5.60
2023-03-12T10:25:01.034Z,5.40
2023-03-12T10:27:30.580Z,6.47
2023-03-12T10:29:58.549Z,5.70
2023-03-12T10:32:43.545Z,5.70
2023-03-12T10:35:21.900Z,6.20
2023-03-12T10:38:04.049Z,5.90
2023-03-12T10:40:36.196Z,5.67
2023-03-12T10:43:07.152Z,5.23
2023-03-12T10:45:47.051Z,5.87
2023-03-12T10:48:23.090Z,6.50
2023-03-12T10:51:10.169Z,6.73
2023-03-12T10:53:45.151Z,6.30
2023-03-12T10:56:21.080Z,6.20
2023-03-12T10:58:51.084Z,7.00
2023-03-12T11:01:32.032Z,6.57
2023-03-12T11:04:15.780Z,6.40
2023-03-12T11:06:43.294Z,6.63
2023-03-12T11:09:17.055Z,6.70
2023-03-12T11:11:47.890Z,6.83
2023-03-12T11:14:21.692Z,6.57
2023-03-12T11:16:50.875Z,7.93
2023-03-12T11:19:36.002Z,6.60
2023-03-12T11:22:08.435Z,7.43
2023-03-12T11:24:36.047Z,8.23
2023-03-12T11:27:08.223Z,7.13
2023-03-12T11:29:47.347Z,7.20
2023-03-12T11:32:34.120Z,9.03
2023-03-12T11:35:02.387Z,10.57
2023-03-12T11:37:40.852Z,8.10
2023-03-12T11:40:40.006Z,7.80
2023-03-12T11:43:42.013Z,8.50
2023-03-12T11:46:29.092Z,8.37
2023-03-12T11:48:59.200Z,7.83
2023-03-12T11:51:54.207Z,8.23
2023-03-12T11:54:40.273Z,8.50
2023-03-12T11:57:24.960Z,9.17
2023-03-12T12:00:33.496Z,9.30
2023-03-12T12:03:35.228Z,8.77
2023-03-12T12:06:41.350Z,9.13
2023-03-12T12:09:37.807Z,9.17
2023-03-12T12:12:23.669Z,9.47
2023-03-12T12:15:09.419Z,9.17
2023-03-12T12:17:57.469Z,9.90
2023-03-12T12:20:31.990Z,8.47
2023-03-12T12:23:06.050Z,9.37
2023-03-12T12:25:51.688Z,9.43
2023-03-12T12:28:35.621Z,9.53
2023-03-12T12:31:26.676Z,9.60
2023-03-12T12:34:06.036Z,9.40
2023-03-12T12:36:35.993Z,9.37
2023-03-12T12:39:15.544Z,9.67
2023-03-12T12:41:53.229Z,9.07
2023-03-12T12:44:49.755Z,9.30
2023-03-12T12:47:30.343Z,9.87
2023-03-12T12:50:00.033Z,8.17
2023-03-12T12:52:27.735Z,8.40
2023-03-12T12:55:03.862Z,7.40
2023-03-12T12:57:39.711Z,8.43
2023-03-12T13:00:23.862Z,7.83
2023-03-12T13:02:51.543Z,7.83
2023-03-12T13:05:27.425Z,7.10
2023-03-12T13:07:54.531Z,7.60
2023-03-12T13:10:33.665Z,8.30
2023-03-12T13:13:09.736Z,7.93
2023-03-12T13:15:41.024Z,7.83
2023-03-12T13:18:23.195Z,6.57
2023-03-12T13:20:52.886Z,7.73
2023-03-12T13:23:31.424Z,6.67
2023-03-12T13:26:08.416Z,7.43
2023-03-12T13:29:11.480Z,7.50
2023-03-12T13:31:41.712Z,6.70
2023-03-12T13:34:28.804Z,7.30
2023-03-12T13:37:03.249Z,6.97
2023-03-12T13:39:37.270Z,7.40
2023-03-12T13:42:24.662Z,6.90
2023-03-12T13:44:53.622Z,6.97
2023-03-12T13:47:27.149Z,6.80
2023-03-12T13:50:04.074Z,6.77
2023-03-12T13:52:33.823Z,7.50
2023-03-12T13:55:20.156Z,6.83
2023-03-12T13:58:01.250Z,7.37
2023-03-12T14:00:41.891Z,5.77
2023-03-12T14:03:22.163Z,6.57
2023-03-12T14:05:55.454Z,5.87
2023-03-12T14:08:48.822Z,6.37
2023-03-12T14:11:41.973Z,7.07
2023-03-12T14:14:26.840Z,6.23
2023-03-12T14:16:58.490Z,6.93
2023-03-12T14:19:36.302Z,7.03
2023-03-12T14:22:11.074Z,6.80
2023-03-12T14:24:42.521Z,6.70
2023-03-12T14:27:21.812Z,6.80
2023-03-12T14:30:19.169Z,6.13
2023-03-12T14:32:50.313Z,6.53
2023-03-12T14:35:23.691Z,6.87
2023-03-12T14:37:56.904Z,6.83
2023-03-12T14:40:38.616Z,6.77
2023-03-12T14:43:20.411Z,6.70
2023-03-12T14:45:51.097Z,6.00
2023-03-12T14:48:22.547Z,6.60
2023-03-12T14:50:49.451Z,7.00
2023-03-12T14:53:29.197Z,6.13
2023-03-12T14:56:30.698Z,6.80
2023-03-12T14:59:00.149Z,7.53
2023-03-12T15:01:32.362Z,6.87
2023-03-12T15:04:16.491Z,6.80
2023-03-12T15:06:50.184Z,6.47
2023-03-12T15:09:27.902Z,6.17
2023-03-12T15:12:08.719Z,7.00
2023-03-12T15:14:40.482Z,6.63
2023-03-12T15:17:08.756Z,6.47
2023-03-12T15:19:39.816Z,6.57
2023-03-12T15:22:19.254Z,6.70
2023-03-12T15:24:46.112Z,6.97
2023-03-12T15:27:24.962Z,6.57
2023-03-12T15:29:52.610Z,6.67
2023-03-12T15:32:21.222Z,6.50
2023-03-12T15:34:48.626Z,7.23
2023-03-12T15:37:41.403Z,6.57
2023-03-12T15:40:22.333Z,6.07
2023-03-12T15:42:50.606Z,6.67
2023-03-12T15:45:26.813Z,6.20
2023-03-12T15:47:54.725Z,6.13
2023-03-12T15:50:24.403Z,6.40
2023-03-12T15:53:14.698Z,6.37
2023-03-12T15:55:42.017Z,7.33
2023-03-12T15:58:27.464Z,6.57
2023-03-12T16:00:54.649Z,6.00
2023-03-12T16:03:22.420Z,5.83
2023-03-12T16:05:50.706Z,6.53
2023-03-12T16:08:22.856Z,5.60
2023-03-12T16:10:51.050Z,5.30
2023-03-12T16:13:23.269Z,6.33
2023-03-12T16:15:52.786Z,6.57
2023-03-12T16:18:22.092Z,6.20
2023-03-12T16:20:50.647Z,6.37
2023-03-12T16:23:19.036Z,6.90
2023-03-12T16:25:56.597Z,6.37
2023-03-12T16:28:24.335Z,7.07
2023-03-12T16:30:51.939Z,6.50
2023-03-12T16:33:21.583Z,7.33
2023-03-12T16:35:48.700Z,9.10
2023-03-12T16:38:15.836Z,10.03
2023-03-12T16:40:48.750Z,11.50
2023-03-12T16:43:24.399Z,11.80
2023-03-12T16:45:53.044Z,11.53
2023-03-12T16:48:24.206Z,20.40
2023-03-12T16:50:56.827Z,16.03
2023-03-12T16:53:24.027Z,21.60
2023-03-12T16:55:56.818Z,20.70
2023-03-12T16:58:24.862Z,17.77
2023-03-12T17:00:53.592Z,18.33
2023-03-12T17:03:45.601Z,19.27
2023-03-12T17:06:18.430Z,18.50
2023-03-12T17:08:46.188Z,19.87
2023-03-12T17:11:34.698Z,20.03
2023-03-12T17:14:03.957Z,20.53
2023-03-12T17:16:31.000Z,18.67
2023-03-12T17:18:58.080Z,14.33
2023-03-12T17:21:25.105Z,11.17
2023-03-12T17:23:51.935Z,14.87
2023-03-12T17:26:19.479Z,9.57
2023-03-12T17:28:46.126Z,11.67
2023-03-12T17:31:12.958Z,13.33
2023-03-12T17:33:39.906Z,15.10
2023-03-12T17:36:09.340Z,13.50
2023-03-12T17:38:37.144Z,17.60
2023-03-12T17:41:09.403Z,20.23
2023-03-12T17:43:41.266Z,18.00
2023-03-12T17:46:10.423Z,18.80
2023-03-12T17:48:37.165Z,16.37
2023-03-12T17:51:10.102Z,18.93
2023-03-12T17:53:42.089Z,21.37
2023-03-12T17:56:09.339Z,22.83
2023-03-12T17:58:36.306Z,19.43
2023-03-12T18:01:03.472Z,17.87
2023-03-12T18:03:30.296Z,15.23
2023-03-12T18:05:57.162Z,18.00
2023-03-12T18:08:23.827Z,18.63
2023-03-12T18:10:50.833Z,16.17
2023-03-12T18:13:17.810Z,17.30
2023-03-12T18:15:52.059Z,19.30
2023-03-12T18:18:18.777Z,19.73
2023-03-12T18:20:46.621Z,18.53
2023-03-12T18:23:13.549Z,18.17
2023-03-12T18:25:49.788Z,17.03
2023-03-12T18:28:16.929Z,17.13
2023-03-12T18:30:47.794Z,18.80
2023-03-12T18:33:17.398Z,18.43
2023-03-12T18:35:44.239Z,16.57
2023-03-12T18:38:11.325Z,17.20
2023-03-12T18:40:38.502Z,15.77
2023-03-12T18:43:05.770Z,17.37
2023-03-12T18:45:32.976Z,17.63
2023-03-12T18:47:59.800Z,17.73
2023-03-12T18:50:26.918Z,16.17
2023-03-12T18:52:53.794Z,14.60
2023-03-12T18:55:20.591Z,15.40
2023-03-12T18:57:48.118Z,14.03
2023-03-12T19:00:19.855Z,13.17
2023-03-12T19:02:48.020Z,13.83
2023-03-12T19:05:16.371Z,10.03
2023-03-12T19:07:43.988Z,10.07
2023-03-12T19:10:12.494Z,9.70
2023-03-12T19:12:51.323Z,10.03
2023-03-12T19:15:20.606Z,9.33
2023-03-12T19:17:47.331Z,10.80
2023-03-12T19:20:14.438Z,11.97
2023-03-12T19:22:41.397Z,11.63
2023-03-12T19:25:08.664Z,13.23
2023-03-12T19:27:35.353Z,10.80
2023-03-12T19:30:06.200Z,10.90
2023-03-12T19:32:42.318Z,11.80
2023-03-12T19:35:11.737Z,8.90
2023-03-12T19:37:38.707Z,7.37
2023-03-12T19:40:06.363Z,8.20
2023-03-12T19:42:33.183Z,10.00
2023-03-12T19:45:00.179Z,7.73
2023-03-12T19:47:27.131Z,7.53
2023-03-12T19:49:54.018Z,8.27
2023-03-12T19:52:20.727Z,6.13
2023-03-12T19:55:01.541Z,5.47
2023-03-12T19:57:30.881Z,8.27
2023-03-12T19:59:57.711Z,9.87
2023-03-12T20:02:27.451Z,8.70
2023-03-12T20:04:55.546Z,6.70
2023-03-12T20:07:22.725Z,6.90
2023-03-12T20:09:49.817Z,5.13
2023-03-12T20:12:16.799Z,5.97
2023-03-12T20:14:43.901Z,5.47
2023-03-12T20:17:12.295Z,4.50
2023-03-12T20:19:40.212Z,5.17
2023-03-12T20:22:07.475Z,4.90
2023-03-12T20:24:34.792Z,5.10
2023-03-12T20:27:01.584Z,4.30
2023-03-12T20:29:28.520Z,4.20
2023-03-12T20:31:55.402Z,4.80
2023-03-12T20:34:22.523Z,4.47
2023-03-12T20:36:49.405Z,5.70
2023-03-12T20:39:16.322Z,4.73
2023-03-12T20:41:43.221Z,4.17
2023-03-12T20:44:10.059Z,5.67
2023-03-12T20:46:36.896Z,4.67
2023-03-12T20:49:03.680Z,5.23
2023-03-12T20:51:34.238Z,5.30
2023-03-12T20:54:01.128Z,5.63
2023-03-12T20:56:28.075Z,6.17
2023-03-12T20:58:54.948Z,6.40
2023-03-12T21:01:22.024Z,5.03
2023-03-12T21:03:49.284Z,4.70
2023-03-12T21:06:16.476Z,5.03
2023-03-12T21:08:43.344Z,4.20
2023-03-12T21:11:10.726Z,4.20
2023-03-12T21:13:37.813Z,3.73
2023-03-12T21:16:19.416Z,4.07
2023-03-12T21:18:49.597Z,2.83
2023-03-12T21:24:58.507Z,3.90
2023-03-12T21:27:25.665Z,3.20
2023-03-12T21:29:55.747Z,3.07
2023-03-12T21:32:23.152Z,2.57
2023-03-12T21:34:50.605Z,2.80
2023-03-12T21:37:17.664Z,3.30
2023-03-12T21:39:48.555Z,3.03
2023-03-12T21:42:24.507Z,3.10
2023-03-12T21:44:52.171Z,2.73
2023-03-12T21:51:10.689Z,3.10
2023-03-12T21:53:41.306Z,2.80
2023-03-12T21:56:12.594Z,3.23
2023-03-12T22:02:29.923Z,2.90
2023-03-12T22:05:38.540Z,2.90
2023-03-12T22:08:12.818Z,2.60
2023-03-12T22:13:24.215Z,2.30
2023-03-12T22:15:58.883Z,2.97
2023-03-12T22:18:26.865Z,3.40
2023-03-12T22:21:01.962Z,2.63
2023-03-12T22:23:29.852Z,3.10
2023-03-12T22:26:00.667Z,2.90
2023-03-12T22:28:27.582Z,3.10
2023-03-12T22:31:12.586Z,2.73
2023-03-12T22:33:39.727Z,3.10
2023-03-12T22:36:09.189Z,3.47
2023-03-12T22:38:37.216Z,2.40
2023-03-12T22:41:16.658Z,2.80
2023-03-12T22:43:45.021Z,2.63
2023-03-12T22:46:12.898Z,2.37
2023-03-12T22:48:40.135Z,2.90
2023-03-12T22:51:12.280Z,2.77
2023-03-12T22:53:43.254Z,2.63
2023-03-12T22:56:12.441Z,2.70
2023-03-12T22:58:40.193Z,3.03
2023-03-12T23:01:10.036Z,2.47
2023-03-12T23:03:37.867Z,2.90
2023-03-12T23:06:12.125Z,3.03
2023-03-12T23:08:39.330Z,2.70
2023-03-12T23:11:08.365Z,2.20
2023-03-12T23:13:37.724Z,3.57
2023-03-12T23:16:07.628Z,2.83
2023-03-12T23:18:35.652Z,2.57
2023-03-12T23:21:07.981Z,2.70
2023-03-12T23:23:35.872Z,2.70
2023-03-12T23:26:06.195Z,2.30
2023-03-12T23:28:33.166Z,3.00
2023-03-12T23:31:06.021Z,2.50
2023-03-12T23:33:34.441Z,2.60
2023-03-12T23:36:11.489Z,3.20
2023-03-12T23:38:38.751Z,2.60
2023-03-12T23:41:12.362Z,2.60
2023-03-12T23:43:39.535Z,2.67
2023-03-12T23:46:09.171Z,2.73
2023-03-12T23:48:37.924Z,2.90
2023-03-12T23:51:12.011Z,2.67
2023-03-12T23:53:42.340Z,2.67
2023-03-12T23:56:12.348Z,2.53
2023-03-12T23:58:39.507Z,2.80
